Maple Hill, North Carolina
Current Conditions -  °F | °C
As of 1:55 AM on Monday 24 Nov 2014 (Local Time) from KOAJ Reporting Station
Broken Clouds Broken Clouds  
Wind Chill: 66°   Ceiling: 10000
Heat Index: 66°   Visibility: 10mi
Dew Point: 63°   Wind: 5mph
Humidity: 88%   Direction: 180°S
Pressure: 29.84"   Gusts: NA
Location:  34.67°N, 77.71°W
Report Text: KOAJ 240655Z AUTO 18004KT 10SM BKN100 BKN120 19/17 A2984 RMK AO1
Loading
Personal Weather Stations






























Interactive Weather Map New forecast layout! Learn more

10-Day Weather Forecast

Advertisements
Track Severe Weather on mobile